Time;durP1;ratioP1;P1;durP2;ratioP2;P2;SDS_P1;SDS_P2;PMS_P1;PMS_P2;Temp;Humidity;BMP_temperature;BMP_pressure;BME280_temperature;BME280_humidity;BME280_pressure;Samples;Min_cycle;Max_cycle;Signal;HPM_P1;HPM_P2
2021/05/09 00:01:38;;;;;;;2.40;1.30;;;;;;;;;;4862089;29;20238;-78
2021/05/09 00:04:06;;;;;;;1.83;1.47;;;;;;;;;;4852174;29;20319;-78
2021/05/09 00:06:34;;;;;;;2.03;1.43;;;;;;;;;;4848730;29;21389;-79
2021/05/09 00:09:02;;;;;;;2.70;1.50;;;;;;;;;;4851374;29;20238;-80
2021/05/09 00:11:30;;;;;;;2.67;1.90;;;;;;;;;;4848938;29;20251;-79
2021/05/09 00:13:57;;;;;;;2.13;1.87;;;;;;;;;;4845352;29;20731;-79
2021/05/09 00:16:26;;;;;;;2.93;1.83;;;;;;;;;;4840851;29;20233;-79
2021/05/09 00:18:53;;;;;;;3.27;1.50;;;;;;;;;;4862757;29;20716;-78
2021/05/09 00:21:21;;;;;;;1.43;1.33;;;;;;;;;;4856363;29;20241;-79
2021/05/09 00:23:49;;;;;;;2.47;1.20;;;;;;;;;;4839183;29;20234;-77
2021/05/09 00:26:16;;;;;;;1.60;1.10;;;;;;;;;;4871973;29;20234;-80
2021/05/09 00:28:44;;;;;;;2.53;1.10;;;;;;;;;;4847887;29;20369;-80
2021/05/09 00:31:11;;;;;;;2.13;1.30;;;;;;;;;;4861508;29;20810;-80
2021/05/09 00:33:40;;;;;;;2.77;1.40;;;;;;;;;;4845705;29;20230;-80
2021/05/09 00:36:13;;;;;;;1.33;1.20;;;;;;;;;;4871079;29;20257;-79
2021/05/09 00:38:41;;;;;;;1.30;1.20;;;;;;;;;;4862224;29;20232;-80
2021/05/09 00:41:08;;;;;;;2.13;1.30;;;;;;;;;;4834156;29;20238;-81
2021/05/09 00:43:36;;;;;;;1.73;1.03;;;;;;;;;;4848424;29;20230;-79
2021/05/09 00:46:03;;;;;;;2.03;1.30;;;;;;;;;;4848369;29;20233;-79
2021/05/09 00:48:36;;;;;;;3.40;1.57;;;;;;;;;;4867200;29;20237;-79
2021/05/09 00:51:05;;;;;;;1.20;1.00;;;;;;;;;;4870036;29;20234;-79
2021/05/09 00:53:34;;;;;;;1.60;1.17;;;;;;;;;;4878613;29;20240;-80
2021/05/09 00:56:02;;;;;;;1.27;1.17;;;;;;;;;;4886933;29;20233;-79
2021/05/09 00:58:35;;;;;;;3.70;1.00;;;;;;;;;;4853394;29;20263;-79
2021/05/09 01:01:03;;;;;;;2.40;1.00;;;;;;;;;;4865906;29;20234;-78
2021/05/09 01:03:32;;;;;;;1.20;1.10;;;;;;;;;;4849162;29;20744;-81
2021/05/09 01:06:00;;;;;;;2.70;1.20;;;;;;;;;;4879347;29;20245;-79
2021/05/09 01:08:31;;;;;;;1.30;1.10;;;;;;;;;;4861118;29;20639;-79
2021/05/09 01:10:59;;;;;;;2.00;1.20;;;;;;;;;;4851959;29;20234;-79
2021/05/09 01:13:27;;;;;;;1.17;1.00;;;;;;;;;;4862649;29;20226;-79
2021/05/09 01:15:55;;;;;;;3.07;1.27;;;;;;;;;;4862741;29;20241;-79
2021/05/09 01:18:22;;;;;;;1.83;0.97;;;;;;;;;;4854335;29;20226;-78
2021/05/09 01:20:51;;;;;;;3.60;1.13;;;;;;;;;;4841148;29;20293;-79
2021/05/09 01:23:19;;;;;;;1.50;1.07;;;;;;;;;;4862240;29;20233;-79
2021/05/09 01:25:47;;;;;;;1.03;0.90;;;;;;;;;;4869820;29;20226;-83
2021/05/09 01:28:16;;;;;;;1.10;1.00;;;;;;;;;;4852086;29;20234;-78
2021/05/09 01:30:44;;;;;;;1.33;1.17;;;;;;;;;;4868482;29;20234;-79
2021/05/09 01:33:11;;;;;;;1.30;1.00;;;;;;;;;;4850718;29;20234;-79
2021/05/09 01:35:39;;;;;;;1.10;1.00;;;;;;;;;;4887365;29;20228;-79
2021/05/09 01:38:07;;;;;;;1.83;1.20;;;;;;;;;;4884975;29;20256;-80
2021/05/09 01:40:35;;;;;;;2.20;1.23;;;;;;;;;;4871292;29;20248;-78
2021/05/09 01:43:03;;;;;;;1.40;1.13;;;;;;;;;;4871988;29;20234;-80
2021/05/09 01:46:07;;;;;;;1.60;1.17;;;;;;;;;;4859424;29;21339;-79
2021/05/09 01:48:35;;;;;;;1.70;1.50;;;;;;;;;;4865754;29;20249;-79
2021/05/09 01:51:03;;;;;;;1.83;1.60;;;;;;;;;;4852770;29;20226;-78
2021/05/09 01:53:31;;;;;;;2.60;2.00;;;;;;;;;;4874062;29;20215;-80
2021/05/09 01:55:59;;;;;;;1.80;1.30;;;;;;;;;;4861257;29;20233;-79
2021/05/09 01:58:34;;;;;;;1.70;1.60;;;;;;;;;;4862849;29;20837;-79
2021/05/09 02:01:10;;;;;;;3.83;2.37;;;;;;;;;;4863047;29;20224;-78
2021/05/09 02:03:49;;;;;;;2.97;2.30;;;;;;;;;;4869210;29;20728;-79
2021/05/09 02:06:16;;;;;;;2.77;2.40;;;;;;;;;;4867156;29;20237;-78
2021/05/09 02:08:45;;;;;;;2.47;2.27;;;;;;;;;;4863739;29;20241;-79
2021/05/09 02:11:30;;;;;;;3.57;2.30;;;;;;;;;;4835555;29;20925;-80
2021/05/09 02:14:02;;;;;;;3.10;2.80;;;;;;;;;;4868791;29;20230;-79
2021/05/09 02:16:32;;;;;;;3.47;2.70;;;;;;;;;;4850525;29;20230;-80
2021/05/09 02:19:00;;;;;;;2.90;2.40;;;;;;;;;;4865045;29;20245;-79
2021/05/09 02:21:38;;;;;;;4.10;2.63;;;;;;;;;;4859130;29;20226;-79
2021/05/09 02:24:07;;;;;;;3.93;2.93;;;;;;;;;;4858009;29;20226;-79
2021/05/09 02:26:35;;;;;;;3.10;2.43;;;;;;;;;;4858863;29;20587;-79
2021/05/09 02:29:04;;;;;;;2.50;2.30;;;;;;;;;;4867449;29;20238;-79
2021/05/09 02:31:32;;;;;;;2.67;2.40;;;;;;;;;;4857088;29;20241;-79
2021/05/09 02:34:00;;;;;;;3.27;2.40;;;;;;;;;;4876282;29;20238;-79
2021/05/09 02:36:28;;;;;;;5.10;2.60;;;;;;;;;;4870584;29;20234;-79
2021/05/09 02:38:56;;;;;;;3.20;2.70;;;;;;;;;;4861023;29;20233;-78
2021/05/09 02:41:24;;;;;;;2.83;2.50;;;;;;;;;;4862315;29;20253;-78
2021/05/09 02:43:52;;;;;;;2.17;1.97;;;;;;;;;;4855458;29;20234;-79
2021/05/09 02:46:20;;;;;;;3.03;2.50;;;;;;;;;;4845028;29;20245;-80
2021/05/09 02:48:47;;;;;;;3.13;2.37;;;;;;;;;;4884959;29;20239;-79
2021/05/09 02:51:15;;;;;;;2.67;2.37;;;;;;;;;;4856823;29;20226;-79
2021/05/09 02:53:43;;;;;;;2.70;2.27;;;;;;;;;;4854712;29;20227;-80
2021/05/09 02:56:11;;;;;;;5.07;2.30;;;;;;;;;;4855369;29;20240;-79
2021/05/09 02:58:39;;;;;;;3.50;2.50;;;;;;;;;;4876772;29;20234;-80
2021/05/09 03:01:07;;;;;;;3.97;3.10;;;;;;;;;;4863979;29;20239;-78
2021/05/09 03:03:35;;;;;;;5.13;3.23;;;;;;;;;;4880052;29;20242;-79
2021/05/09 03:06:03;;;;;;;4.27;2.70;;;;;;;;;;4874890;29;20246;-79
2021/05/09 03:08:33;;;;;;;4.00;2.80;;;;;;;;;;4859676;29;20234;-79
2021/05/09 03:11:02;;;;;;;2.97;2.67;;;;;;;;;;4875694;29;20238;-79
2021/05/09 03:13:31;;;;;;;4.20;3.07;;;;;;;;;;4871022;29;20431;-79
2021/05/09 03:16:00;;;;;;;4.80;3.40;;;;;;;;;;4878601;29;20234;-79
2021/05/09 03:18:28;;;;;;;4.20;3.53;;;;;;;;;;4861389;29;20234;-79
2021/05/09 03:20:57;;;;;;;3.87;3.30;;;;;;;;;;4881147;29;20234;-80
2021/05/09 03:23:24;;;;;;;4.80;3.50;;;;;;;;;;4856689;29;20353;-80
2021/05/09 03:25:52;;;;;;;4.53;3.63;;;;;;;;;;4865518;29;20230;-80
2021/05/09 03:28:19;;;;;;;3.73;3.40;;;;;;;;;;4876072;29;20249;-80
2021/05/09 03:30:47;;;;;;;3.57;3.20;;;;;;;;;;4864720;29;20239;-80
2021/05/09 03:33:15;;;;;;;4.37;3.27;;;;;;;;;;4863046;29;20245;-80
2021/05/09 03:35:44;;;;;;;3.60;3.10;;;;;;;;;;4854252;29;20228;-80
2021/05/09 03:38:11;;;;;;;4.80;3.50;;;;;;;;;;4873275;29;20696;-79
2021/05/09 03:40:40;;;;;;;3.77;3.30;;;;;;;;;;4856457;29;20598;-78
2021/05/09 03:43:08;;;;;;;5.07;3.40;;;;;;;;;;4857494;29;20237;-80
2021/05/09 03:45:35;;;;;;;4.17;3.67;;;;;;;;;;4864728;29;20234;-80
2021/05/09 03:48:04;;;;;;;4.77;3.60;;;;;;;;;;4859404;29;20243;-80
2021/05/09 03:50:32;;;;;;;4.20;3.80;;;;;;;;;;4877195;29;20235;-80
2021/05/09 03:53:00;;;;;;;3.40;3.10;;;;;;;;;;4862926;29;20226;-80
2021/05/09 03:55:27;;;;;;;4.20;3.30;;;;;;;;;;4858061;29;20593;-79
2021/05/09 03:57:55;;;;;;;5.57;3.37;;;;;;;;;;4852921;29;20282;-80
2021/05/09 04:00:23;;;;;;;4.37;3.47;;;;;;;;;;4843422;29;20248;-79
2021/05/09 04:02:52;;;;;;;5.90;3.70;;;;;;;;;;4856707;29;20245;-79
2021/05/09 04:05:19;;;;;;;4.23;3.43;;;;;;;;;;4851710;29;20238;-80
2021/05/09 04:07:47;;;;;;;3.93;3.33;;;;;;;;;;4856508;29;20248;-80
2021/05/09 04:10:15;;;;;;;5.10;3.60;;;;;;;;;;4855114;29;20229;-79
2021/05/09 04:12:42;;;;;;;4.40;3.80;;;;;;;;;;4856545;29;20238;-79
2021/05/09 04:15:11;;;;;;;4.40;3.47;;;;;;;;;;4855149;29;20243;-80
2021/05/09 04:17:39;;;;;;;5.00;3.33;;;;;;;;;;4868371;29;20229;-80
2021/05/09 04:20:07;;;;;;;3.50;3.20;;;;;;;;;;4861841;29;22525;-80
2021/05/09 04:22:35;;;;;;;5.53;3.70;;;;;;;;;;4875846;29;20230;-80
2021/05/09 04:25:06;;;;;;;5.97;3.77;;;;;;;;;;4857449;29;20259;-82
2021/05/09 04:27:33;;;;;;;3.87;3.47;;;;;;;;;;4853161;29;20237;-80
2021/05/09 04:30:01;;;;;;;7.00;3.30;;;;;;;;;;4872014;29;20241;-82
2021/05/09 04:32:28;;;;;;;3.57;3.27;;;;;;;;;;4861234;29;20229;-80
2021/05/09 04:34:57;;;;;;;6.50;3.73;;;;;;;;;;4866739;29;20602;-79
2021/05/09 04:37:25;;;;;;;3.93;3.50;;;;;;;;;;4836216;29;20226;-80
2021/05/09 04:39:53;;;;;;;4.50;3.40;;;;;;;;;;4851755;29;20719;-82
2021/05/09 04:42:21;;;;;;;3.43;2.97;;;;;;;;;;4858038;29;20254;-79
2021/05/09 04:44:49;;;;;;;6.80;3.93;;;;;;;;;;4860750;29;20218;-82
2021/05/09 04:47:16;;;;;;;4.90;4.10;;;;;;;;;;4875089;29;20241;-81
2021/05/09 04:49:44;;;;;;;6.50;3.57;;;;;;;;;;4864504;29;20238;-80
2021/05/09 04:52:11;;;;;;;3.93;3.50;;;;;;;;;;4875537;29;20236;-80
2021/05/09 04:54:39;;;;;;;4.33;3.30;;;;;;;;;;4883675;29;20229;-80
2021/05/09 04:57:07;;;;;;;4.73;3.67;;;;;;;;;;4849864;29;20238;-80
2021/05/09 04:59:35;;;;;;;3.63;3.30;;;;;;;;;;4868131;29;20234;-80
2021/05/09 05:02:03;;;;;;;5.87;3.70;;;;;;;;;;4849222;29;20241;-82
2021/05/09 05:04:30;;;;;;;3.63;3.23;;;;;;;;;;4857927;29;20249;-80
2021/05/09 05:06:58;;;;;;;3.93;3.10;;;;;;;;;;4862520;29;20226;-81
2021/05/09 05:09:25;;;;;;;4.77;3.20;;;;;;;;;;4849402;29;20238;-80
2021/05/09 05:11:54;;;;;;;4.00;3.03;;;;;;;;;;4850192;29;20245;-80
2021/05/09 05:14:22;;;;;;;3.43;2.93;;;;;;;;;;4856706;29;20806;-80
2021/05/09 05:16:50;;;;;;;3.27;2.93;;;;;;;;;;4871357;29;20245;-80
2021/05/09 05:19:18;;;;;;;3.77;3.10;;;;;;;;;;4877435;29;20246;-81
2021/05/09 05:21:45;;;;;;;3.27;2.43;;;;;;;;;;4873613;29;20234;-80
2021/05/09 05:24:16;;;;;;;3.90;3.10;;;;;;;;;;4867268;29;20235;-81
2021/05/09 05:26:43;;;;;;;3.27;2.70;;;;;;;;;;4851919;29;20240;-79
2021/05/09 05:29:11;;;;;;;3.60;2.70;;;;;;;;;;4874023;29;20241;-80
2021/05/09 05:31:38;;;;;;;3.93;3.03;;;;;;;;;;4855548;29;21595;-80
2021/05/09 05:34:07;;;;;;;3.10;2.80;;;;;;;;;;4849677;29;20257;-81
2021/05/09 05:36:34;;;;;;;3.60;3.17;;;;;;;;;;4858962;29;20240;-82
2021/05/09 05:39:02;;;;;;;3.97;2.47;;;;;;;;;;4854312;29;20237;-80
2021/05/09 05:41:30;;;;;;;2.90;2.70;;;;;;;;;;4848223;29;20229;-84
2021/05/09 05:43:57;;;;;;;2.87;2.57;;;;;;;;;;4871332;29;20230;-79
2021/05/09 05:46:27;;;;;;;3.87;2.90;;;;;;;;;;4860800;29;20241;-80
2021/05/09 05:48:54;;;;;;;2.97;2.67;;;;;;;;;;4879876;29;20234;-80
2021/05/09 05:51:23;;;;;;;4.53;3.00;;;;;;;;;;4868137;29;20247;-80
2021/05/09 05:53:54;;;;;;;2.80;2.50;;;;;;;;;;4874691;29;20230;-80
2021/05/09 05:56:22;;;;;;;5.83;4.43;;;;;;;;;;4877690;29;20230;-81
2021/05/09 05:58:49;;;;;;;5.07;4.60;;;;;;;;;;4846308;29;20250;-82
2021/05/09 06:01:17;;;;;;;4.13;3.03;;;;;;;;;;4854722;29;20237;-80
2021/05/09 06:03:45;;;;;;;2.87;2.57;;;;;;;;;;4871023;29;20238;-80
2021/05/09 06:06:12;;;;;;;2.57;2.37;;;;;;;;;;4868660;29;20720;-81
2021/05/09 06:08:42;;;;;;;4.87;2.70;;;;;;;;;;4863496;29;20304;-80
2021/05/09 06:11:09;;;;;;;2.93;2.27;;;;;;;;;;4845833;29;20736;-80
2021/05/09 06:13:37;;;;;;;3.37;2.80;;;;;;;;;;4867142;29;20234;-80
2021/05/09 06:16:05;;;;;;;4.70;2.73;;;;;;;;;;4862564;29;20831;-82
2021/05/09 06:18:32;;;;;;;3.30;2.53;;;;;;;;;;4866768;29;20444;-80
2021/05/09 06:21:00;;;;;;;4.13;2.30;;;;;;;;;;4872205;29;20226;-82
2021/05/09 06:23:28;;;;;;;4.83;2.37;;;;;;;;;;4852279;29;20257;-80
2021/05/09 06:25:57;;;;;;;3.07;2.77;;;;;;;;;;4861092;29;20234;-80
2021/05/09 06:28:24;;;;;;;4.53;2.67;;;;;;;;;;4880190;29;20233;-80
2021/05/09 06:30:52;;;;;;;3.00;2.70;;;;;;;;;;4881884;29;20253;-80
2021/05/09 06:33:20;;;;;;;2.80;2.40;;;;;;;;;;4860007;29;20535;-80
2021/05/09 06:35:49;;;;;;;3.40;2.60;;;;;;;;;;4861385;29;20229;-80
2021/05/09 06:38:17;;;;;;;3.10;2.50;;;;;;;;;;4866939;29;20774;-81
2021/05/09 06:40:45;;;;;;;2.97;2.70;;;;;;;;;;4873791;29;20698;-81
2021/05/09 06:43:13;;;;;;;3.50;2.10;;;;;;;;;;4855492;29;20227;-81
2021/05/09 06:45:40;;;;;;;2.83;2.33;;;;;;;;;;4878109;29;20577;-81
2021/05/09 06:48:10;;;;;;;2.73;2.27;;;;;;;;;;4880848;29;20625;-81
2021/05/09 06:50:37;;;;;;;2.80;2.50;;;;;;;;;;4862119;29;20219;-80
2021/05/09 06:53:06;;;;;;;4.13;2.30;;;;;;;;;;4873491;29;20245;-80
2021/05/09 06:55:34;;;;;;;2.43;2.10;;;;;;;;;;4863823;29;20239;-81
2021/05/09 06:58:03;;;;;;;3.30;2.50;;;;;;;;;;4863721;29;20237;-80
2021/05/09 07:00:31;;;;;;;3.03;1.97;;;;;;;;;;4871734;29;20689;-80
2021/05/09 07:02:59;;;;;;;2.80;2.00;;;;;;;;;;4864592;29;20618;-81
2021/05/09 07:05:26;;;;;;;2.87;1.97;;;;;;;;;;4861766;29;20721;-80
2021/05/09 07:07:55;;;;;;;2.33;1.87;;;;;;;;;;4875282;29;20261;-82
2021/05/09 07:10:24;;;;;;;2.33;1.80;;;;;;;;;;4874953;29;20234;-78
2021/05/09 07:12:52;;;;;;;3.63;2.20;;;;;;;;;;4857442;29;20245;-78
2021/05/09 07:15:25;;;;;;;1.87;1.60;;;;;;;;;;4870338;29;21048;-78
2021/05/09 07:18:00;;;;;;;2.70;2.10;;;;;;;;;;4856248;29;20237;-78
2021/05/09 07:20:28;;;;;;;4.13;2.33;;;;;;;;;;4856769;29;20257;-78
2021/05/09 07:22:57;;;;;;;2.67;2.47;;;;;;;;;;4871776;29;20234;-79
2021/05/09 07:25:25;;;;;;;2.93;2.63;;;;;;;;;;4848549;29;20759;-78
2021/05/09 07:27:53;;;;;;;4.10;2.93;;;;;;;;;;4856232;29;20235;-79
2021/05/09 07:30:21;;;;;;;3.43;3.13;;;;;;;;;;4865568;29;20226;-77
2021/05/09 07:32:48;;;;;;;3.97;2.73;;;;;;;;;;4860638;29;20743;-79
2021/05/09 07:35:17;;;;;;;4.20;2.83;;;;;;;;;;4870858;29;20237;-78
2021/05/09 07:37:44;;;;;;;5.73;2.63;;;;;;;;;;4844830;29;20620;-79
2021/05/09 07:40:12;;;;;;;3.80;2.47;;;;;;;;;;4874137;29;20233;-77
2021/05/09 07:42:40;;;;;;;3.77;2.63;;;;;;;;;;4869355;29;20230;-78
2021/05/09 07:45:15;;;;;;;3.43;2.67;;;;;;;;;;4867445;29;20245;-79
2021/05/09 07:47:43;;;;;;;2.90;2.40;;;;;;;;;;4872672;29;20704;-78
2021/05/09 07:50:11;;;;;;;4.10;2.63;;;;;;;;;;4853157;29;20233;-79
2021/05/09 07:52:43;;;;;;;3.43;2.53;;;;;;;;;;4856804;29;20230;-78
2021/05/09 07:55:11;;;;;;;4.53;2.80;;;;;;;;;;4854262;29;20641;-78
2021/05/09 07:57:39;;;;;;;2.70;2.50;;;;;;;;;;4854566;29;20238;-78
2021/05/09 08:00:10;;;;;;;2.80;2.27;;;;;;;;;;4853715;29;20234;-78
2021/05/09 08:02:42;;;;;;;2.33;2.13;;;;;;;;;;4861283;29;20237;-78
2021/05/09 08:05:11;;;;;;;2.00;1.80;;;;;;;;;;4837918;29;20733;-77
2021/05/09 08:07:49;;;;;;;2.93;2.13;;;;;;;;;;4850743;29;20233;-76
2021/05/09 08:10:17;;;;;;;3.60;2.30;;;;;;;;;;4854502;29;20242;-76
2021/05/09 08:12:45;;;;;;;3.70;2.63;;;;;;;;;;4855958;29;20340;-77
2021/05/09 08:15:14;;;;;;;3.43;2.27;;;;;;;;;;4847643;29;20234;-79
2021/05/09 08:17:42;;;;;;;3.23;2.20;;;;;;;;;;4853704;29;20225;-76
2021/05/09 08:20:12;;;;;;;2.40;2.10;;;;;;;;;;4848400;29;20230;-76
2021/05/09 08:22:39;;;;;;;3.47;2.00;;;;;;;;;;4860034;29;20226;-78
2021/05/09 08:25:08;;;;;;;2.33;1.70;;;;;;;;;;4854958;29;20241;-78
2021/05/09 08:27:36;;;;;;;4.67;2.50;;;;;;;;;;4854357;29;20245;-76
2021/05/09 08:30:06;;;;;;;2.20;1.57;;;;;;;;;;4867788;29;20719;-78
2021/05/09 08:32:34;;;;;;;2.00;1.70;;;;;;;;;;4861244;29;20877;-77
2021/05/09 08:35:04;;;;;;;1.70;1.50;;;;;;;;;;4852279;29;20226;-76
2021/05/09 08:37:32;;;;;;;1.70;1.60;;;;;;;;;;4862775;29;20432;-78
2021/05/09 08:40:00;;;;;;;2.57;1.37;;;;;;;;;;4849475;29;20701;-77
2021/05/09 08:42:28;;;;;;;2.20;1.20;;;;;;;;;;4837782;29;20237;-77
2021/05/09 08:44:56;;;;;;;1.63;1.30;;;;;;;;;;4836679;29;21005;-76
2021/05/09 08:47:36;;;;;;;1.30;1.20;;;;;;;;;;4877953;29;20226;-77
2021/05/09 08:50:06;;;;;;;2.23;1.30;;;;;;;;;;4890036;29;20251;-77
2021/05/09 08:52:35;;;;;;;1.23;1.13;;;;;;;;;;4889769;29;20236;-78
2021/05/09 08:55:04;;;;;;;2.43;1.20;;;;;;;;;;4875837;29;20224;-79
2021/05/09 08:57:33;;;;;;;1.77;1.50;;;;;;;;;;4875493;29;20224;-77
2021/05/09 09:00:01;;;;;;;0.90;0.90;;;;;;;;;;4839325;29;20584;-77
2021/05/09 09:02:29;;;;;;;1.77;1.20;;;;;;;;;;4864268;29;20245;-77
2021/05/09 09:04:58;;;;;;;2.33;1.10;;;;;;;;;;4858198;29;20237;-77
2021/05/09 09:07:43;;;;;;;3.60;1.10;;;;;;;;;;4851451;29;20230;-77
2021/05/09 09:10:11;;;;;;;1.10;1.00;;;;;;;;;;4869235;29;20234;-79
2021/05/09 09:12:40;;;;;;;1.10;1.00;;;;;;;;;;4846674;29;20253;-79
2021/05/09 09:15:08;;;;;;;1.10;0.80;;;;;;;;;;4867837;29;20715;-77
2021/05/09 09:17:35;;;;;;;1.45;1.15;;;;;;;;;;4860251;29;20244;-78
2021/05/09 09:20:07;;;;;;;1.38;1.10;;;;;;;;;;4853589;29;20242;-79
2021/05/09 09:22:55;;;;;;;1.35;1.23;;;;;;;;;;4839782;29;20245;-78
2021/05/09 09:25:26;;;;;;;2.92;1.23;;;;;;;;;;4854873;29;20344;-77
2021/05/09 09:27:56;;;;;;;1.90;1.00;;;;;;;;;;4854751;29;20237;-77
2021/05/09 09:30:25;;;;;;;2.65;1.27;;;;;;;;;;4864760;29;20241;-77
2021/05/09 09:33:14;;;;;;;0.90;0.90;;;;;;;;;;4851667;29;20689;-78
2021/05/09 09:35:42;;;;;;;3.45;1.40;;;;;;;;;;4861671;29;20241;-77
2021/05/09 09:38:28;;;;;;;2.25;1.33;;;;;;;;;;4854705;29;20244;-77
2021/05/09 09:41:15;;;;;;;1.30;1.17;;;;;;;;;;4862495;29;20284;-77
2021/05/09 09:44:02;;;;;;;1.10;1.00;;;;;;;;;;4847014;29;20288;-77
2021/05/09 09:46:32;;;;;;;2.30;1.20;;;;;;;;;;4838552;29;20238;-77
2021/05/09 09:49:01;;;;;;;1.52;1.17;;;;;;;;;;4838214;29;20638;-78
2021/05/09 09:51:28;;;;;;;1.23;1.13;;;;;;;;;;4851130;29;20238;-78
2021/05/09 09:53:57;;;;;;;1.15;1.05;;;;;;;;;;4865513;29;20241;-77
2021/05/09 09:56:26;;;;;;;1.38;1.00;;;;;;;;;;4840366;29;20234;-77
2021/05/09 09:58:56;;;;;;;1.67;1.10;;;;;;;;;;4858821;29;21053;-77
2021/05/09 10:01:25;;;;;;;1.27;1.10;;;;;;;;;;4833900;29;20233;-77
2021/05/09 10:03:54;;;;;;;1.15;1.00;;;;;;;;;;4868019;29;20245;-78
2021/05/09 10:06:23;;;;;;;1.52;1.20;;;;;;;;;;4869001;29;20226;-78
2021/05/09 10:08:52;;;;;;;1.45;1.30;;;;;;;;;;4851568;29;20250;-77
2021/05/09 10:11:20;;;;;;;2.35;1.27;;;;;;;;;;4870974;29;20530;-77
2021/05/09 10:13:49;;;;;;;0.93;0.93;;;;;;;;;;4854549;29;20231;-77
2021/05/09 10:16:20;;;;;;;1.25;0.90;;;;;;;;;;4868244;29;20257;-77
2021/05/09 10:18:49;;;;;;;1.83;1.10;;;;;;;;;;4858130;29;20231;-78
2021/05/09 10:21:17;;;;;;;0.88;0.88;;;;;;;;;;4870234;29;20241;-77
2021/05/09 10:24:09;;;;;;;1.33;1.17;;;;;;;;;;4863895;29;20253;-78
2021/05/09 10:26:47;;;;;;;0.80;0.80;;;;;;;;;;4865717;29;20250;-77
2021/05/09 10:29:51;;;;;;;1.48;0.80;;;;;;;;;;4853557;29;20524;-77
2021/05/09 10:32:51;;;;;;;0.77;0.77;;;;;;;;;;4827126;29;20218;-77
2021/05/09 10:35:44;;;;;;;1.75;1.27;;;;;;;;;;4886552;29;20215;-79
2021/05/09 10:38:12;;;;;;;0.82;0.82;;;;;;;;;;4853731;29;20244;-77
2021/05/09 10:40:42;;;;;;;2.10;0.90;;;;;;;;;;4854241;29;20229;-79
2021/05/09 10:43:36;;;;;;;1.20;0.90;;;;;;;;;;4845997;29;20920;-77
2021/05/09 10:46:06;;;;;;;1.35;0.95;;;;;;;;;;4852760;29;20234;-77
2021/05/09 10:48:35;;;;;;;1.00;1.00;;;;;;;;;;4862405;29;20234;-78
2021/05/09 10:51:30;;;;;;;1.73;1.10;;;;;;;;;;4864998;29;20232;-78
2021/05/09 10:54:19;;;;;;;2.33;1.20;;;;;;;;;;4840546;29;20222;-79
2021/05/09 10:56:47;;;;;;;1.30;1.20;;;;;;;;;;4841727;29;20237;-80
2021/05/09 10:59:15;;;;;;;1.60;1.50;;;;;;;;;;4854438;29;20291;-79
2021/05/09 11:01:43;;;;;;;1.60;1.50;;;;;;;;;;4849054;29;20234;-79
2021/05/09 11:04:11;;;;;;;1.45;1.35;;;;;;;;;;4849777;29;20604;-78
2021/05/09 11:06:44;;;;;;;1.50;1.40;;;;;;;;;;4837298;29;20241;-78
2021/05/09 11:09:14;;;;;;;1.50;1.40;;;;;;;;;;4858649;29;20235;-78
2021/05/09 11:12:01;;;;;;;1.70;1.60;;;;;;;;;;4856449;29;20290;-79
2021/05/09 11:14:30;;;;;;;1.83;1.40;;;;;;;;;;4858193;29;20238;-79
2021/05/09 11:17:11;;;;;;;2.08;1.52;;;;;;;;;;4850579;29;20242;-78
2021/05/09 11:19:47;;;;;;;1.85;1.70;;;;;;;;;;4864831;29;20234;-78
2021/05/09 11:22:34;;;;;;;2.72;1.45;;;;;;;;;;4842483;29;20229;-79
2021/05/09 11:25:04;;;;;;;2.30;1.70;;;;;;;;;;4831208;29;20245;-78
2021/05/09 11:27:32;;;;;;;2.08;1.80;;;;;;;;;;4850272;29;20230;-78
2021/05/09 11:30:02;;;;;;;2.20;1.80;;;;;;;;;;4861810;29;20249;-78
2021/05/09 11:32:31;;;;;;;2.80;1.67;;;;;;;;;;4840883;29;20234;-78
2021/05/09 11:35:03;;;;;;;1.88;1.77;;;;;;;;;;4844646;29;20236;-79
2021/05/09 11:37:33;;;;;;;3.75;1.95;;;;;;;;;;4850436;29;20226;-79
2021/05/09 11:40:04;;;;;;;4.20;1.60;;;;;;;;;;4855062;29;20241;-78
2021/05/09 11:42:31;;;;;;;1.90;1.63;;;;;;;;;;4844648;29;20234;-78
2021/05/09 11:44:59;;;;;;;1.95;1.70;;;;;;;;;;4849099;29;20238;-78
2021/05/09 11:47:28;;;;;;;2.10;2.00;;;;;;;;;;4868172;29;20234;-79
2021/05/09 11:50:00;;;;;;;3.65;1.95;;;;;;;;;;4868697;29;20238;-78
2021/05/09 11:52:29;;;;;;;1.88;1.77;;;;;;;;;;4870600;29;20241;-78
2021/05/09 11:55:03;;;;;;;2.10;1.90;;;;;;;;;;4847028;29;20716;-79
2021/05/09 11:57:31;;;;;;;1.90;1.80;;;;;;;;;;4860692;29;20238;-78
2021/05/09 12:00:03;;;;;;;2.13;1.90;;;;;;;;;;4848677;29;20242;-79
2021/05/09 12:02:32;;;;;;;2.33;2.13;;;;;;;;;;4852625;29;20234;-78
2021/05/09 12:05:03;;;;;;;1.90;1.80;;;;;;;;;;4851869;29;20230;-78
2021/05/09 12:07:34;;;;;;;2.33;2.08;;;;;;;;;;4866583;29;20693;-79
2021/05/09 12:10:06;;;;;;;2.00;1.90;;;;;;;;;;4871840;29;20282;-78
2021/05/09 12:12:35;;;;;;;2.50;2.30;;;;;;;;;;4863444;29;20246;-76
2021/05/09 12:15:11;;;;;;;2.40;2.30;;;;;;;;;;4851927;29;20235;-78
2021/05/09 12:18:00;;;;;;;3.67;1.98;;;;;;;;;;4849971;29;20223;-79
2021/05/09 12:20:34;;;;;;;2.30;2.10;;;;;;;;;;4870037;29;20240;-79
2021/05/09 12:23:05;;;;;;;2.67;1.80;;;;;;;;;;4865871;29;20244;-79
2021/05/09 12:25:37;;;;;;;2.08;1.98;;;;;;;;;;4881612;29;20242;-79
2021/05/09 12:28:10;;;;;;;4.18;2.20;;;;;;;;;;4880551;29;20242;-79
2021/05/09 12:30:39;;;;;;;2.17;1.98;;;;;;;;;;4861456;29;20240;-79
2021/05/09 12:33:07;;;;;;;1.95;1.85;;;;;;;;;;4859243;29;20237;-79
2021/05/09 12:35:42;;;;;;;3.60;2.20;;;;;;;;;;4838699;29;20582;-79
2021/05/09 12:38:10;;;;;;;2.75;2.20;;;;;;;;;;4848966;29;20233;-79
2021/05/09 12:40:39;;;;;;;2.03;1.90;;;;;;;;;;4849630;29;20227;-79
2021/05/09 12:43:07;;;;;;;2.30;2.10;;;;;;;;;;4870618;29;20237;-79
2021/05/09 12:45:38;;;;;;;1.95;1.85;;;;;;;;;;4857374;29;20708;-79
2021/05/09 12:48:15;;;;;;;2.00;1.90;;;;;;;;;;4859101;29;20234;-79
2021/05/09 12:50:50;;;;;;;2.30;2.10;;;;;;;;;;4856023;29;20233;-79
2021/05/09 12:53:38;;;;;;;2.83;2.10;;;;;;;;;;4875426;29;20229;-79
2021/05/09 12:56:14;;;;;;;2.63;2.10;;;;;;;;;;4854375;29;20226;-79
2021/05/09 12:58:57;;;;;;;2.13;1.80;;;;;;;;;;4851719;29;20230;-79
2021/05/09 13:01:25;;;;;;;2.00;1.90;;;;;;;;;;4855412;29;20230;-79
2021/05/09 13:03:52;;;;;;;2.00;1.90;;;;;;;;;;4854772;29;20234;-79
2021/05/09 13:06:20;;;;;;;2.20;2.05;;;;;;;;;;4854741;29;20238;-79
2021/05/09 13:08:48;;;;;;;2.08;1.88;;;;;;;;;;4852587;29;20601;-79
2021/05/09 13:11:16;;;;;;;1.95;1.85;;;;;;;;;;4854139;29;20238;-78
2021/05/09 13:13:43;;;;;;;2.10;1.85;;;;;;;;;;4858731;29;20607;-79
2021/05/09 13:16:11;;;;;;;2.00;1.90;;;;;;;;;;4864153;29;20230;-79
2021/05/09 13:18:39;;;;;;;2.53;2.33;;;;;;;;;;4854281;29;20234;-78
2021/05/09 13:21:08;;;;;;;2.97;2.60;;;;;;;;;;4857358;29;20346;-78
2021/05/09 13:23:36;;;;;;;2.60;2.00;;;;;;;;;;4876623;29;20602;-78
2021/05/09 13:26:04;;;;;;;2.00;1.90;;;;;;;;;;4856169;29;20231;-79
2021/05/09 13:28:32;;;;;;;2.00;1.90;;;;;;;;;;4870899;29;20407;-80
2021/05/09 13:30:59;;;;;;;2.47;1.80;;;;;;;;;;4879956;29;20228;-79
2021/05/09 13:33:30;;;;;;;2.20;2.00;;;;;;;;;;4857348;29;20241;-78
2021/05/09 13:35:58;;;;;;;1.83;1.73;;;;;;;;;;4843733;29;20245;-78
2021/05/09 13:38:25;;;;;;;1.88;1.70;;;;;;;;;;4861519;29;20622;-78
2021/05/09 13:40:53;;;;;;;2.30;2.10;;;;;;;;;;4856382;29;20226;-79
2021/05/09 13:43:21;;;;;;;1.92;1.83;;;;;;;;;;4878297;29;20241;-78
2021/05/09 13:45:49;;;;;;;3.70;3.40;;;;;;;;;;4858954;29;20226;-79
2021/05/09 13:48:20;;;;;;;3.20;1.85;;;;;;;;;;4858798;29;20241;-79
2021/05/09 13:50:47;;;;;;;2.47;2.10;;;;;;;;;;4853954;29;20230;-79
2021/05/09 13:53:15;;;;;;;2.10;1.88;;;;;;;;;;4854670;29;20234;-79
2021/05/09 13:55:42;;;;;;;2.40;2.20;;;;;;;;;;4851003;29;20226;-79
2021/05/09 13:58:12;;;;;;;3.22;2.92;;;;;;;;;;4865034;29;20234;-79
2021/05/09 14:00:42;;;;;;;5.78;2.75;;;;;;;;;;4845014;29;20221;-79
2021/05/09 14:03:09;;;;;;;3.30;2.90;;;;;;;;;;4862980;29;20248;-78
2021/05/09 14:05:37;;;;;;;3.10;2.80;;;;;;;;;;4839928;29;20227;-79
2021/05/09 14:08:05;;;;;;;2.63;2.42;;;;;;;;;;4858666;29;20249;-79
2021/05/09 14:10:32;;;;;;;1.98;1.77;;;;;;;;;;4859559;29;20229;-79
2021/05/09 14:13:00;;;;;;;2.97;2.78;;;;;;;;;;4859321;29;20258;-79
2021/05/09 14:15:27;;;;;;;2.97;2.67;;;;;;;;;;4862643;29;20242;-79
2021/05/09 14:17:56;;;;;;;2.63;2.42;;;;;;;;;;4862238;29;20245;-79
2021/05/09 14:20:24;;;;;;;2.78;2.28;;;;;;;;;;4862223;29;20230;-78
2021/05/09 14:22:52;;;;;;;2.25;2.05;;;;;;;;;;4838009;29;20229;-77
2021/05/09 14:25:19;;;;;;;2.00;1.90;;;;;;;;;;4858115;29;20728;-77
2021/05/09 14:27:48;;;;;;;1.95;1.75;;;;;;;;;;4863390;29;20248;-77
2021/05/09 14:30:16;;;;;;;2.45;2.17;;;;;;;;;;4841649;29;20247;-77
2021/05/09 14:32:44;;;;;;;2.05;1.75;;;;;;;;;;4859929;29;20223;-78
2021/05/09 14:35:13;;;;;;;2.67;1.80;;;;;;;;;;4832434;29;20230;-79
2021/05/09 14:37:40;;;;;;;3.35;1.80;;;;;;;;;;4842270;29;20258;-76
2021/05/09 14:40:09;;;;;;;2.30;2.10;;;;;;;;;;4866552;29;20222;-76
2021/05/09 14:42:37;;;;;;;3.15;2.58;;;;;;;;;;4868544;29;20651;-79
2021/05/09 14:45:06;;;;;;;6.10;5.70;;;;;;;;;;4851081;29;20245;-79
2021/05/09 14:47:33;;;;;;;3.47;2.60;;;;;;;;;;4867755;29;20237;-76
2021/05/09 14:50:02;;;;;;;2.03;1.92;;;;;;;;;;4870317;29;20234;-78
2021/05/09 14:52:31;;;;;;;3.15;2.50;;;;;;;;;;4852739;29;20697;-77
2021/05/09 14:54:59;;;;;;;2.60;2.00;;;;;;;;;;4867441;29;20230;-77
2021/05/09 14:57:27;;;;;;;2.20;2.10;;;;;;;;;;4855999;29;20230;-77
2021/05/09 14:59:55;;;;;;;1.95;1.80;;;;;;;;;;4865741;29;20242;-76